createdAt,value
2023-03-17T00:02:19.411Z,5.40
2023-03-17T00:07:46.347Z,6.10
2023-03-17T00:10:17.288Z,5.27
2023-03-17T00:12:45.707Z,7.13
2023-03-17T00:15:14.801Z,5.40
2023-03-17T00:17:44.039Z,5.43
2023-03-17T00:20:15.650Z,5.73
2023-03-17T00:23:01.498Z,5.43
2023-03-17T00:25:30.620Z,8.00
2023-03-17T00:31:02.735Z,6.33
2023-03-17T00:33:34.355Z,7.33
2023-03-17T00:36:02.155Z,5.93
2023-03-17T00:38:58.288Z,5.35
2023-03-17T00:41:26.956Z,5.60
2023-03-17T00:46:54.230Z,5.43
2023-03-17T00:49:25.108Z,7.17
2023-03-17T00:51:53.382Z,5.90
2023-03-17T00:54:22.443Z,5.57
2023-03-17T00:56:50.753Z,5.50
2023-03-17T01:02:14.431Z,6.80
2023-03-17T01:07:52.783Z,5.80
2023-03-17T01:10:23.840Z,6.87
2023-03-17T01:12:51.912Z,4.80
2023-03-17T01:15:21.527Z,5.57
2023-03-17T01:17:50.334Z,5.93
2023-03-17T01:20:20.059Z,7.20
2023-03-17T01:22:49.242Z,6.43
2023-03-17T01:25:17.942Z,4.97
2023-03-17T01:27:46.369Z,5.83
2023-03-17T01:30:23.574Z,5.30
2023-03-17T01:32:51.207Z,6.93
2023-03-17T01:35:19.897Z,6.60
2023-03-17T01:37:50.393Z,6.10
2023-03-17T01:40:20.674Z,5.63
2023-03-17T01:42:52.248Z,6.00
2023-03-17T01:48:19.214Z,6.00
2023-03-17T01:50:48.194Z,5.60
2023-03-17T01:53:17.452Z,5.73
2023-03-17T01:55:46.978Z,7.40
2023-03-17T01:58:15.072Z,5.80
2023-03-17T02:00:43.834Z,7.07
2023-03-17T02:03:11.432Z,7.17
2023-03-17T02:05:39.622Z,7.00
2023-03-17T02:08:11.071Z,7.00
2023-03-17T02:10:40.712Z,5.50
2023-03-17T02:16:07.809Z,6.20
2023-03-17T02:18:35.250Z,5.30
2023-03-17T02:21:32.443Z,6.63
2023-03-17T02:24:02.058Z,6.13
2023-03-17T02:29:18.491Z,6.40
2023-03-17T02:31:46.278Z,5.97
2023-03-17T02:34:13.712Z,7.00
2023-03-17T02:36:42.821Z,6.37
2023-03-17T02:39:11.051Z,5.73
2023-03-17T02:41:38.841Z,9.43
2023-03-17T02:44:06.455Z,5.83
2023-03-17T02:46:33.916Z,5.77
2023-03-17T02:49:01.881Z,5.43
2023-03-17T02:54:13.314Z,5.87
2023-03-17T02:59:43.647Z,5.57
2023-03-17T03:02:11.389Z,5.97
2023-03-17T03:04:38.915Z,7.47
2023-03-17T03:07:06.435Z,6.57
2023-03-17T03:09:35.187Z,5.13
2023-03-17T03:12:02.954Z,6.13
2023-03-17T03:14:30.410Z,7.10
2023-03-17T03:16:58.406Z,5.73
2023-03-17T03:19:25.847Z,5.80
2023-03-17T03:21:53.276Z,5.60
2023-03-17T03:24:20.671Z,5.00
2023-03-17T03:26:49.415Z,6.23
2023-03-17T03:29:16.857Z,5.80
2023-03-17T03:31:44.281Z,5.43
2023-03-17T03:34:11.907Z,5.93
2023-03-17T03:36:39.362Z,5.07
2023-03-17T03:41:58.110Z,5.73
2023-03-17T03:44:25.870Z,7.93
2023-03-17T03:46:53.385Z,5.67
2023-03-17T03:49:20.984Z,7.10
2023-03-17T03:51:48.452Z,7.60
2023-03-17T03:54:15.897Z,6.33
2023-03-17T03:56:43.366Z,8.30
2023-03-17T03:59:12.538Z,5.40
2023-03-17T04:01:40.034Z,5.20
2023-03-17T04:04:07.483Z,6.07
2023-03-17T04:06:35.130Z,5.93
2023-03-17T04:09:02.714Z,5.97
2023-03-17T04:11:30.178Z,5.77
2023-03-17T04:13:58.019Z,6.40
2023-03-17T04:16:27.070Z,5.70
2023-03-17T04:18:54.527Z,5.63
2023-03-17T04:24:25.079Z,5.70
2023-03-17T04:26:53.080Z,7.60
2023-03-17T04:29:20.523Z,6.37
2023-03-17T04:31:49.583Z,6.73
2023-03-17T04:34:18.608Z,5.23
2023-03-17T04:39:48.909Z,6.07
2023-03-17T04:42:16.423Z,5.60
2023-03-17T04:44:43.975Z,5.80
2023-03-17T04:47:13.095Z,5.67
2023-03-17T04:49:40.823Z,9.03
2023-03-17T04:52:08.512Z,11.20
2023-03-17T04:54:36.374Z,12.10
2023-03-17T04:57:03.867Z,7.63
2023-03-17T04:59:31.547Z,5.90
2023-03-17T05:01:59.064Z,6.90
2023-03-17T05:04:31.652Z,7.70
2023-03-17T05:06:59.679Z,10.03
2023-03-17T05:09:28.533Z,5.83
2023-03-17T05:11:56.382Z,5.73
2023-03-17T05:17:22.000Z,5.73
2023-03-17T05:19:50.901Z,5.53
2023-03-17T05:22:18.497Z,10.43
2023-03-17T05:24:46.079Z,5.47
2023-03-17T05:27:13.535Z,6.77
2023-03-17T05:32:44.090Z,7.37
2023-03-17T05:35:14.097Z,5.97
2023-03-17T05:37:41.620Z,6.53
2023-03-17T05:40:10.417Z,7.67
2023-03-17T05:45:37.143Z,8.03
2023-03-17T05:48:05.176Z,6.83
2023-03-17T05:50:34.338Z,6.73
2023-03-17T05:53:01.936Z,7.77
2023-03-17T05:55:29.339Z,7.37
2023-03-17T06:00:45.151Z,7.27
2023-03-17T06:03:12.687Z,9.13
2023-03-17T06:05:41.798Z,8.13
2023-03-17T06:08:10.190Z,9.70
2023-03-17T06:13:35.890Z,9.67
2023-03-17T06:16:03.868Z,9.23
2023-03-17T06:18:31.492Z,8.13
2023-03-17T06:21:00.293Z,9.73
2023-03-17T06:23:27.713Z,9.00
2023-03-17T06:25:55.405Z,10.83
2023-03-17T06:28:23.008Z,7.27
2023-03-17T06:30:51.169Z,7.30
2023-03-17T06:33:19.086Z,7.90
2023-03-17T06:35:46.909Z,8.67
2023-03-17T06:38:15.723Z,8.27
2023-03-17T06:40:43.389Z,8.93
2023-03-17T06:45:59.105Z,6.53
2023-03-17T06:48:26.835Z,7.43
2023-03-17T06:50:54.256Z,5.77
2023-03-17T06:53:23.115Z,5.97
2023-03-17T06:55:50.547Z,6.60
2023-03-17T06:58:18.070Z,5.80
2023-03-17T07:00:47.053Z,4.90
2023-03-17T07:03:14.655Z,4.50
2023-03-17T07:08:46.895Z,5.20
2023-03-17T07:11:14.614Z,4.60
2023-03-17T07:13:42.205Z,4.57
2023-03-17T07:16:11.173Z,5.43
2023-03-17T07:18:39.320Z,4.50
2023-03-17T07:21:06.958Z,4.83
2023-03-17T07:23:34.414Z,4.77
2023-03-17T07:26:03.525Z,5.00
2023-03-17T07:28:31.217Z,4.83
2023-03-17T07:31:00.369Z,4.80
2023-03-17T07:33:27.828Z,5.00
2023-03-17T07:38:57.876Z,4.27
2023-03-17T07:41:26.660Z,5.47
2023-03-17T07:43:54.149Z,4.70
2023-03-17T07:46:21.804Z,6.40
2023-03-17T07:48:49.288Z,4.63
2023-03-17T07:51:18.966Z,4.17
2023-03-17T07:53:46.815Z,6.10
2023-03-17T07:56:14.321Z,4.57
2023-03-17T07:58:43.115Z,5.20
2023-03-17T08:01:10.695Z,4.80
2023-03-17T08:03:41.365Z,4.87
2023-03-17T08:06:09.231Z,4.37
2023-03-17T08:08:36.881Z,4.00
2023-03-17T08:11:05.640Z,4.20
2023-03-17T08:16:33.627Z,5.10
2023-03-17T08:19:03.785Z,4.33
2023-03-17T08:21:31.816Z,5.80
2023-03-17T08:23:59.258Z,4.33
2023-03-17T08:29:20.566Z,5.07
2023-03-17T08:31:49.481Z,4.43
2023-03-17T08:34:17.040Z,4.60
2023-03-17T08:36:44.537Z,4.80
2023-03-17T08:42:01.133Z,4.23
2023-03-17T08:44:28.656Z,4.30
2023-03-17T08:46:57.819Z,4.53
2023-03-17T08:49:28.939Z,4.33
2023-03-17T08:51:56.374Z,4.90
2023-03-17T08:57:25.937Z,4.83
2023-03-17T08:59:53.581Z,6.63
2023-03-17T09:05:25.324Z,4.60
2023-03-17T09:07:53.442Z,4.67
2023-03-17T09:10:23.483Z,4.63
2023-03-17T09:12:51.462Z,4.63
2023-03-17T09:15:18.947Z,5.07
2023-03-17T09:20:50.419Z,4.60
2023-03-17T09:23:17.853Z,5.30
2023-03-17T09:25:45.376Z,4.40
2023-03-17T09:28:13.585Z,4.70
2023-03-17T09:30:42.483Z,4.33
2023-03-17T09:33:10.237Z,5.00
2023-03-17T09:35:37.688Z,5.00
2023-03-17T09:38:06.832Z,4.63
2023-03-17T09:43:29.055Z,4.30
2023-03-17T09:45:57.667Z,4.50
2023-03-17T09:48:33.519Z,4.10
2023-03-17T09:51:04.721Z,4.87
2023-03-17T09:53:36.125Z,4.33
2023-03-17T09:56:08.113Z,4.40
2023-03-17T09:58:36.556Z,4.97
2023-03-17T10:01:05.931Z,4.03
2023-03-17T10:03:34.069Z,5.53
2023-03-17T10:06:19.302Z,5.10
2023-03-17T10:08:54.939Z,4.80
2023-03-17T10:11:29.420Z,3.97
2023-03-17T10:14:01.957Z,4.47
2023-03-17T10:19:33.911Z,4.00
2023-03-17T10:22:04.253Z,5.57
2023-03-17T10:24:33.890Z,4.23
2023-03-17T10:27:04.590Z,4.17
2023-03-17T10:29:32.576Z,6.70
2023-03-17T10:32:00.295Z,3.63
2023-03-17T10:34:29.718Z,4.83
2023-03-17T10:39:59.672Z,4.47
2023-03-17T10:42:29.035Z,8.37
2023-03-17T10:44:57.748Z,5.13
2023-03-17T10:47:30.013Z,3.50
2023-03-17T10:52:47.507Z,4.73
2023-03-17T10:55:21.237Z,4.17
2023-03-17T10:57:53.440Z,3.77
2023-03-17T11:03:23.266Z,4.67
2023-03-17T11:05:56.619Z,5.03
2023-03-17T11:08:24.270Z,4.13
2023-03-17T11:10:57.495Z,3.60
2023-03-17T11:13:30.005Z,4.53
2023-03-17T11:16:11.508Z,4.87
2023-03-17T11:18:40.650Z,4.10
2023-03-17T11:21:10.410Z,4.00
2023-03-17T11:23:46.239Z,5.27
2023-03-17T11:26:27.471Z,4.53
2023-03-17T11:29:01.625Z,3.60
2023-03-17T11:31:32.338Z,5.37
2023-03-17T11:36:57.814Z,4.23
2023-03-17T11:39:27.693Z,4.10
2023-03-17T11:42:05.847Z,5.13
2023-03-17T11:44:41.157Z,3.70
2023-03-17T11:47:18.089Z,6.20
2023-03-17T11:49:50.779Z,4.00
2023-03-17T11:52:24.472Z,4.10
2023-03-17T11:57:56.960Z,4.63
2023-03-17T12:03:32.939Z,5.67
2023-03-17T12:06:05.326Z,3.77
2023-03-17T12:08:37.815Z,4.73
2023-03-17T12:11:08.315Z,4.00
2023-03-17T12:16:31.010Z,4.00
2023-03-17T12:19:04.541Z,4.97
2023-03-17T12:21:36.815Z,4.27
2023-03-17T12:24:11.481Z,4.83
2023-03-17T12:26:45.394Z,4.50
2023-03-17T12:32:06.563Z,3.90
2023-03-17T12:34:37.709Z,4.90
2023-03-17T12:37:05.473Z,5.03
2023-03-17T12:39:34.250Z,4.40
2023-03-17T12:45:30.632Z,4.57
2023-03-17T12:51:14.496Z,5.63
2023-03-17T12:53:42.588Z,4.20
2023-03-17T12:56:18.153Z,4.37
2023-03-17T12:58:46.553Z,4.47
2023-03-17T13:01:23.981Z,6.43
2023-03-17T13:04:04.362Z,4.47
2023-03-17T13:09:43.747Z,4.50
2023-03-17T13:12:36.660Z,4.20
2023-03-17T13:15:04.525Z,4.40
2023-03-17T13:17:34.721Z,4.60
2023-03-17T13:20:15.227Z,7.90
2023-03-17T13:23:01.869Z,5.90
2023-03-17T13:25:34.829Z,5.13
2023-03-17T13:28:23.660Z,6.30
2023-03-17T13:30:57.356Z,4.23
2023-03-17T13:33:30.577Z,5.50
2023-03-17T13:36:06.573Z,4.20
2023-03-17T13:38:48.520Z,4.83
2023-03-17T13:41:34.247Z,4.70
2023-03-17T13:47:12.456Z,5.57
2023-03-17T13:49:39.986Z,5.07
2023-03-17T13:52:12.527Z,4.60
2023-03-17T13:54:42.678Z,4.73
2023-03-17T13:57:26.512Z,3.60
2023-03-17T14:03:03.078Z,4.97
2023-03-17T14:05:32.921Z,5.63
2023-03-17T14:08:02.943Z,4.47
2023-03-17T14:10:33.399Z,5.27
2023-03-17T14:13:09.023Z,4.73
2023-03-17T14:15:46.069Z,5.03
2023-03-17T14:18:17.970Z,4.50
2023-03-17T14:20:53.555Z,3.93
2023-03-17T14:26:25.376Z,4.20
2023-03-17T14:28:54.491Z,5.23
2023-03-17T14:31:24.103Z,4.20
2023-03-17T14:33:54.112Z,4.37
2023-03-17T14:36:21.885Z,3.90
2023-03-17T14:38:51.388Z,3.77
2023-03-17T14:41:20.773Z,5.43
2023-03-17T14:43:48.474Z,3.90
2023-03-17T14:46:19.162Z,4.63
2023-03-17T14:51:41.963Z,5.20
2023-03-17T14:54:13.904Z,4.03
2023-03-17T14:59:45.084Z,4.37
2023-03-17T15:02:23.119Z,4.10
2023-03-17T15:04:53.210Z,4.27
2023-03-17T15:07:32.219Z,4.07
2023-03-17T15:13:01.918Z,4.00
2023-03-17T15:15:31.984Z,5.53
2023-03-17T15:20:51.912Z,5.43
2023-03-17T15:26:25.509Z,4.93
2023-03-17T15:28:53.007Z,5.60
2023-03-17T15:31:23.350Z,6.00
2023-03-17T15:33:51.291Z,5.80
2023-03-17T15:36:31.816Z,4.63
2023-03-17T15:39:00.432Z,4.27
2023-03-17T15:41:27.911Z,5.27
2023-03-17T15:46:57.912Z,3.90
2023-03-17T15:49:26.983Z,4.23
2023-03-17T15:51:55.927Z,4.47
2023-03-17T15:54:23.374Z,4.57
2023-03-17T15:56:50.824Z,5.47
2023-03-17T15:59:18.255Z,3.80
2023-03-17T16:01:45.783Z,4.37
2023-03-17T16:04:13.544Z,5.33
2023-03-17T16:06:41.077Z,4.50
2023-03-17T16:09:16.590Z,6.37
2023-03-17T16:11:44.232Z,6.93
2023-03-17T16:14:12.079Z,4.20
2023-03-17T16:16:42.400Z,3.97
2023-03-17T16:19:17.509Z,8.40
2023-03-17T16:21:45.004Z,5.90
2023-03-17T16:24:18.208Z,4.77
2023-03-17T16:26:45.615Z,4.90
2023-03-17T16:29:14.237Z,4.20
2023-03-17T16:34:40.005Z,5.37
2023-03-17T16:37:09.796Z,4.07
2023-03-17T16:39:39.607Z,4.10
2023-03-17T16:42:32.874Z,4.70
2023-03-17T16:45:00.330Z,4.50
2023-03-17T16:50:31.789Z,4.97
2023-03-17T16:52:59.905Z,4.67
2023-03-17T16:55:29.998Z,5.40
2023-03-17T16:58:00.546Z,5.97
2023-03-17T17:00:30.093Z,4.90
2023-03-17T17:02:59.377Z,4.50
2023-03-17T17:05:29.162Z,5.97
2023-03-17T17:07:57.655Z,5.03
2023-03-17T17:10:27.300Z,5.30
2023-03-17T17:12:56.068Z,4.50
2023-03-17T17:15:23.706Z,4.67
2023-03-17T17:17:53.348Z,5.17
2023-03-17T17:20:22.176Z,4.73
2023-03-17T17:22:50.184Z,6.00
2023-03-17T17:25:18.111Z,4.20
2023-03-17T17:30:35.422Z,6.50
2023-03-17T17:33:03.303Z,4.47
2023-03-17T17:35:32.909Z,4.20
2023-03-17T17:38:01.335Z,4.43
2023-03-17T17:40:29.606Z,5.03
2023-03-17T17:42:57.656Z,4.63
2023-03-17T17:48:29.319Z,5.13
2023-03-17T17:50:57.829Z,4.30
2023-03-17T17:53:25.466Z,7.43
2023-03-17T17:55:52.971Z,5.60
2023-03-17T17:58:24.008Z,4.83
2023-03-17T18:00:52.528Z,4.40
2023-03-17T18:03:24.301Z,3.83
2023-03-17T18:08:55.021Z,6.10
2023-03-17T18:11:22.466Z,4.90
2023-03-17T18:13:49.857Z,4.70
2023-03-17T18:16:18.160Z,4.70
2023-03-17T18:18:46.997Z,5.23
2023-03-17T18:24:04.716Z,4.23
2023-03-17T18:26:32.825Z,5.77
2023-03-17T18:29:01.098Z,5.13
2023-03-17T18:34:35.048Z,4.80
2023-03-17T18:37:02.826Z,4.77
2023-03-17T18:39:33.482Z,5.63
2023-03-17T18:42:00.906Z,4.33
2023-03-17T18:47:27.013Z,4.97
2023-03-17T18:49:55.577Z,4.67
2023-03-17T18:55:06.601Z,6.17
2023-03-17T19:00:36.978Z,7.40
2023-03-17T19:03:04.548Z,4.90
2023-03-17T19:05:31.997Z,5.37
2023-03-17T19:10:54.305Z,9.47
2023-03-17T19:13:21.722Z,10.20
2023-03-17T19:15:49.718Z,9.10
2023-03-17T19:21:13.149Z,8.43
2023-03-17T19:23:41.314Z,8.10
2023-03-17T19:26:10.200Z,7.07
2023-03-17T19:28:37.691Z,6.73
2023-03-17T19:31:30.265Z,8.67
2023-03-17T19:33:57.775Z,7.77
2023-03-17T19:36:25.400Z,6.47
2023-03-17T19:38:52.825Z,4.40
2023-03-17T19:41:21.568Z,4.77
2023-03-17T19:43:49.006Z,5.17
2023-03-17T19:46:16.480Z,7.10
2023-03-17T19:48:43.906Z,4.80
2023-03-17T19:54:00.060Z,4.33
2023-03-17T19:56:28.834Z,4.53
2023-03-17T19:58:56.404Z,3.80
2023-03-17T20:01:23.913Z,10.20
2023-03-17T20:06:52.074Z,6.10
2023-03-17T20:09:19.542Z,5.33
2023-03-17T20:11:48.287Z,6.07
2023-03-17T20:14:15.844Z,5.23
2023-03-17T20:16:43.351Z,4.27
2023-03-17T20:19:10.772Z,5.23
2023-03-17T20:21:38.235Z,6.00
2023-03-17T20:24:07.073Z,6.03
2023-03-17T20:26:34.637Z,6.97
2023-03-17T20:29:03.479Z,4.30
2023-03-17T20:31:31.952Z,6.03
2023-03-17T20:33:59.521Z,6.97
2023-03-17T20:36:27.311Z,7.03
2023-03-17T20:38:54.724Z,6.13
2023-03-17T20:41:22.395Z,5.37
2023-03-17T20:43:49.823Z,5.07
2023-03-17T20:46:20.521Z,7.20
2023-03-17T20:48:48.385Z,5.87
2023-03-17T20:51:17.138Z,4.37
2023-03-17T20:53:45.095Z,4.57
2023-03-17T20:56:15.223Z,4.87
2023-03-17T20:58:42.939Z,5.67
2023-03-17T21:01:12.686Z,6.47
2023-03-17T21:03:42.217Z,5.13
2023-03-17T21:06:10.454Z,5.57
2023-03-17T21:08:38.613Z,5.13
2023-03-17T21:11:06.828Z,5.73
2023-03-17T21:13:34.439Z,4.77
2023-03-17T21:16:02.331Z,6.70
2023-03-17T21:18:30.307Z,6.90
2023-03-17T21:20:59.476Z,5.60
2023-03-17T21:23:27.013Z,6.10
2023-03-17T21:28:57.431Z,6.70
2023-03-17T21:31:25.038Z,5.00
2023-03-17T21:33:52.702Z,5.47
2023-03-17T21:36:21.875Z,4.50
2023-03-17T21:38:49.364Z,5.07
2023-03-17T21:44:27.592Z,4.33
2023-03-17T21:46:56.312Z,6.90
2023-03-17T21:49:24.916Z,4.40
2023-03-17T21:51:54.613Z,4.43
2023-03-17T21:54:22.258Z,5.63
2023-03-17T21:59:52.040Z,4.73
2023-03-17T22:02:19.539Z,3.97
2023-03-17T22:04:48.581Z,5.43
2023-03-17T22:07:17.726Z,5.00
2023-03-17T22:12:37.020Z,4.87
2023-03-17T22:18:06.947Z,5.33
2023-03-17T22:20:34.447Z,4.37
2023-03-17T22:23:03.254Z,5.87
2023-03-17T22:28:19.363Z,4.30
2023-03-17T22:33:44.324Z,7.17
2023-03-17T22:36:11.957Z,9.47
2023-03-17T22:38:41.246Z,9.47
2023-03-17T22:41:10.730Z,10.53
2023-03-17T22:43:38.426Z,9.73
2023-03-17T22:46:06.101Z,9.07
2023-03-17T22:48:35.979Z,9.07
2023-03-17T22:54:03.696Z,8.67
2023-03-17T22:56:31.355Z,7.10
2023-03-17T22:58:59.099Z,7.10
2023-03-17T23:01:27.180Z,6.47
2023-03-17T23:03:55.355Z,6.03
2023-03-17T23:06:23.186Z,7.33
2023-03-17T23:08:50.798Z,6.27
2023-03-17T23:14:23.648Z,4.73
2023-03-17T23:16:51.236Z,5.90
2023-03-17T23:22:16.948Z,7.33
2023-03-17T23:24:44.367Z,7.07
2023-03-17T23:27:12.188Z,8.77
2023-03-17T23:29:41.104Z,10.33
2023-03-17T23:35:03.710Z,6.57
2023-03-17T23:37:31.516Z,6.10
2023-03-17T23:39:59.159Z,5.47
2023-03-17T23:42:26.633Z,12.53
2023-03-17T23:44:55.567Z,13.23
2023-03-17T23:47:23.235Z,13.13
2023-03-17T23:49:50.650Z,12.20
2023-03-17T23:52:18.131Z,12.73
2023-03-17T23:57:34.630Z,11.53
